sensor_id;sensor_type;location;lat;lon;timestamp;P1;durP1;ratioP1;P2;durP2;ratioP2
64714;SDS011;51144;53.002;6.506;2023-03-02T00:01:36;37.20;;;27.00;;
64714;SDS011;51144;53.002;6.506;2023-03-02T00:04:14;34.28;;;28.15;;
64714;SDS011;51144;53.002;6.506;2023-03-02T00:06:49;32.35;;;24.30;;
64714;SDS011;51144;53.002;6.506;2023-03-02T00:09:17;38.78;;;30.13;;
64714;SDS011;51144;53.002;6.506;2023-03-02T00:11:43;33.75;;;28.15;;
64714;SDS011;51144;53.002;6.506;2023-03-02T00:14:09;36.08;;;25.80;;
64714;SDS011;51144;53.002;6.506;2023-03-02T00:16:35;33.83;;;27.95;;
64714;SDS011;51144;53.002;6.506;2023-03-02T00:19:01;35.00;;;28.00;;
64714;SDS011;51144;53.002;6.506;2023-03-02T00:21:26;34.47;;;26.23;;
64714;SDS011;51144;53.002;6.506;2023-03-02T00:23:52;33.75;;;27.80;;
64714;SDS011;51144;53.002;6.506;2023-03-02T00:26:18;35.80;;;26.92;;
64714;SDS011;51144;53.002;6.506;2023-03-02T00:28:44;34.65;;;28.40;;
64714;SDS011;51144;53.002;6.506;2023-03-02T00:31:09;41.30;;;29.73;;
64714;SDS011;51144;53.002;6.506;2023-03-02T00:33:35;35.38;;;27.48;;
64714;SDS011;51144;53.002;6.506;2023-03-02T00:36:01;41.03;;;30.38;;
64714;SDS011;51144;53.002;6.506;2023-03-02T00:38:27;37.95;;;29.02;;
64714;SDS011;51144;53.002;6.506;2023-03-02T00:40:53;39.78;;;29.80;;
64714;SDS011;51144;53.002;6.506;2023-03-02T00:43:20;41.35;;;30.73;;
64714;SDS011;51144;53.002;6.506;2023-03-02T00:45:51;42.83;;;30.48;;
64714;SDS011;51144;53.002;6.506;2023-03-02T00:48:18;43.97;;;30.98;;
64714;SDS011;51144;53.002;6.506;2023-03-02T00:50:43;39.38;;;29.35;;
64714;SDS011;51144;53.002;6.506;2023-03-02T00:53:09;40.83;;;31.33;;
64714;SDS011;51144;53.002;6.506;2023-03-02T00:55:36;43.67;;;31.38;;
64714;SDS011;51144;53.002;6.506;2023-03-02T00:58:02;40.47;;;31.60;;
64714;SDS011;51144;53.002;6.506;2023-03-02T01:00:29;44.20;;;31.55;;
64714;SDS011;51144;53.002;6.506;2023-03-02T01:02:56;40.35;;;32.15;;
64714;SDS011;51144;53.002;6.506;2023-03-02T01:05:22;40.78;;;32.10;;
64714;SDS011;51144;53.002;6.506;2023-03-02T01:07:47;45.05;;;31.58;;
64714;SDS011;51144;53.002;6.506;2023-03-02T01:10:13;42.50;;;31.90;;
64714;SDS011;51144;53.002;6.506;2023-03-02T01:12:39;40.67;;;29.95;;
64714;SDS011;51144;53.002;6.506;2023-03-02T01:15:05;45.20;;;32.17;;
64714;SDS011;51144;53.002;6.506;2023-03-02T01:17:32;42.20;;;32.15;;
64714;SDS011;51144;53.002;6.506;2023-03-02T01:19:57;42.00;;;30.67;;
64714;SDS011;51144;53.002;6.506;2023-03-02T01:22:24;48.55;;;29.80;;
64714;SDS011;51144;53.002;6.506;2023-03-02T01:24:49;47.58;;;31.30;;
64714;SDS011;51144;53.002;6.506;2023-03-02T01:27:16;44.22;;;30.42;;
64714;SDS011;51144;53.002;6.506;2023-03-02T01:29:41;40.95;;;29.30;;
64714;SDS011;51144;53.002;6.506;2023-03-02T01:32:07;41.65;;;31.40;;
64714;SDS011;51144;53.002;6.506;2023-03-02T01:34:33;42.75;;;31.63;;
64714;SDS011;51144;53.002;6.506;2023-03-02T01:36:58;41.08;;;30.08;;
64714;SDS011;51144;53.002;6.506;2023-03-02T01:39:24;44.03;;;30.65;;
64714;SDS011;51144;53.002;6.506;2023-03-02T01:41:50;41.30;;;30.17;;
64714;SDS011;51144;53.002;6.506;2023-03-02T01:46:57;40.40;;;28.55;;
64714;SDS011;51144;53.002;6.506;2023-03-02T01:49:23;43.72;;;29.52;;
64714;SDS011;51144;53.002;6.506;2023-03-02T01:51:49;41.88;;;29.02;;
64714;SDS011;51144;53.002;6.506;2023-03-02T01:54:17;39.15;;;26.45;;
64714;SDS011;51144;53.002;6.506;2023-03-02T01:56:47;37.85;;;28.65;;
64714;SDS011;51144;53.002;6.506;2023-03-02T01:59:17;43.33;;;29.33;;
64714;SDS011;51144;53.002;6.506;2023-03-02T02:01:44;42.40;;;28.75;;
64714;SDS011;51144;53.002;6.506;2023-03-02T02:04:15;42.97;;;26.50;;
64714;SDS011;51144;53.002;6.506;2023-03-02T02:06:53;41.35;;;29.67;;
64714;SDS011;51144;53.002;6.506;2023-03-02T02:09:22;39.90;;;28.70;;
64714;SDS011;51144;53.002;6.506;2023-03-02T02:11:49;43.67;;;28.75;;
64714;SDS011;51144;53.002;6.506;2023-03-02T02:14:15;48.63;;;30.65;;
64714;SDS011;51144;53.002;6.506;2023-03-02T02:16:40;44.03;;;29.27;;
64714;SDS011;51144;53.002;6.506;2023-03-02T02:19:12;47.92;;;29.67;;
64714;SDS011;51144;53.002;6.506;2023-03-02T02:22:01;44.53;;;29.70;;
64714;SDS011;51144;53.002;6.506;2023-03-02T02:25:00;48.00;;;30.90;;
64714;SDS011;51144;53.002;6.506;2023-03-02T02:27:22;48.28;;;30.80;;
64714;SDS011;51144;53.002;6.506;2023-03-02T02:29:54;50.80;;;30.60;;
64714;SDS011;51144;53.002;6.506;2023-03-02T02:32:23;47.55;;;29.60;;
64714;SDS011;51144;53.002;6.506;2023-03-02T02:35:24;48.08;;;29.60;;
64714;SDS011;51144;53.002;6.506;2023-03-02T02:37:52;44.90;;;29.10;;
64714;SDS011;51144;53.002;6.506;2023-03-02T02:43:18;49.53;;;30.33;;
64714;SDS011;51144;53.002;6.506;2023-03-02T02:45:45;47.13;;;29.33;;
64714;SDS011;51144;53.002;6.506;2023-03-02T02:48:17;48.00;;;29.05;;
64714;SDS011;51144;53.002;6.506;2023-03-02T02:50:45;50.38;;;30.08;;
64714;SDS011;51144;53.002;6.506;2023-03-02T02:53:22;47.75;;;30.30;;
64714;SDS011;51144;53.002;6.506;2023-03-02T02:55:53;49.08;;;30.33;;
64714;SDS011;51144;53.002;6.506;2023-03-02T03:00:59;48.78;;;30.20;;
64714;SDS011;51144;53.002;6.506;2023-03-02T03:05:56;46.35;;;30.30;;
64714;SDS011;51144;53.002;6.506;2023-03-02T03:11:07;46.50;;;31.17;;
64714;SDS011;51144;53.002;6.506;2023-03-02T03:13:35;54.35;;;34.05;;
64714;SDS011;51144;53.002;6.506;2023-03-02T03:16:02;55.30;;;32.83;;
64714;SDS011;51144;53.002;6.506;2023-03-02T03:18:30;50.72;;;31.40;;
64714;SDS011;51144;53.002;6.506;2023-03-02T03:20:55;54.70;;;33.28;;
64714;SDS011;51144;53.002;6.506;2023-03-02T03:23:21;53.00;;;32.42;;
64714;SDS011;51144;53.002;6.506;2023-03-02T03:25:48;54.03;;;31.15;;
64714;SDS011;51144;53.002;6.506;2023-03-02T03:28:13;50.28;;;31.52;;
64714;SDS011;51144;53.002;6.506;2023-03-02T03:30:39;58.92;;;32.10;;
64714;SDS011;51144;53.002;6.506;2023-03-02T03:33:05;55.95;;;33.28;;
64714;SDS011;51144;53.002;6.506;2023-03-02T03:35:35;54.65;;;33.00;;
64714;SDS011;51144;53.002;6.506;2023-03-02T03:38:02;60.35;;;31.40;;
64714;SDS011;51144;53.002;6.506;2023-03-02T03:40:29;63.85;;;31.35;;
64714;SDS011;51144;53.002;6.506;2023-03-02T03:42:58;95.22;;;31.95;;
64714;SDS011;51144;53.002;6.506;2023-03-02T03:45:28;97.25;;;34.92;;
64714;SDS011;51144;53.002;6.506;2023-03-02T03:47:53;114.95;;;37.30;;
64714;SDS011;51144;53.002;6.506;2023-03-02T03:50:19;170.45;;;38.13;;
64714;SDS011;51144;53.002;6.506;2023-03-02T03:52:45;192.15;;;37.97;;
64714;SDS011;51144;53.002;6.506;2023-03-02T03:55:12;257.13;;;40.38;;
64714;SDS011;51144;53.002;6.506;2023-03-02T03:57:38;179.68;;;39.25;;
64714;SDS011;51144;53.002;6.506;2023-03-02T04:00:04;260.75;;;41.42;;
64714;SDS011;51144;53.002;6.506;2023-03-02T04:02:33;192.75;;;40.60;;
64714;SDS011;51144;53.002;6.506;2023-03-02T04:04:58;185.32;;;40.90;;
64714;SDS011;51144;53.002;6.506;2023-03-02T04:07:30;156.05;;;39.22;;
64714;SDS011;51144;53.002;6.506;2023-03-02T04:09:56;155.88;;;39.20;;
64714;SDS011;51144;53.002;6.506;2023-03-02T04:12:31;168.77;;;42.50;;
64714;SDS011;51144;53.002;6.506;2023-03-02T04:14:59;158.85;;;39.92;;
64714;SDS011;51144;53.002;6.506;2023-03-02T04:17:25;179.18;;;41.70;;
64714;SDS011;51144;53.002;6.506;2023-03-02T04:19:52;240.68;;;44.13;;
64714;SDS011;51144;53.002;6.506;2023-03-02T04:22:18;190.48;;;42.10;;
64714;SDS011;51144;53.002;6.506;2023-03-02T04:24:45;175.75;;;41.20;;
64714;SDS011;51144;53.002;6.506;2023-03-02T04:27:11;174.30;;;40.58;;
64714;SDS011;51144;53.002;6.506;2023-03-02T04:29:38;186.75;;;40.28;;
64714;SDS011;51144;53.002;6.506;2023-03-02T04:32:04;131.70;;;39.97;;
64714;SDS011;51144;53.002;6.506;2023-03-02T04:34:30;138.25;;;42.17;;
64714;SDS011;51144;53.002;6.506;2023-03-02T04:36:56;137.15;;;43.53;;
64714;SDS011;51144;53.002;6.506;2023-03-02T04:39:22;205.80;;;40.65;;
64714;SDS011;51144;53.002;6.506;2023-03-02T04:41:48;174.93;;;40.05;;
64714;SDS011;51144;53.002;6.506;2023-03-02T04:44:15;196.23;;;36.83;;
64714;SDS011;51144;53.002;6.506;2023-03-02T04:46:42;181.20;;;39.17;;
64714;SDS011;51144;53.002;6.506;2023-03-02T04:49:08;234.48;;;39.72;;
64714;SDS011;51144;53.002;6.506;2023-03-02T04:51:35;182.40;;;38.08;;
64714;SDS011;51144;53.002;6.506;2023-03-02T04:54:04;204.13;;;41.30;;
64714;SDS011;51144;53.002;6.506;2023-03-02T04:56:32;258.67;;;43.58;;
64714;SDS011;51144;53.002;6.506;2023-03-02T04:58:58;331.02;;;48.92;;
64714;SDS011;51144;53.002;6.506;2023-03-02T05:01:24;193.90;;;43.95;;
64714;SDS011;51144;53.002;6.506;2023-03-02T05:03:50;209.15;;;44.55;;
64714;SDS011;51144;53.002;6.506;2023-03-02T05:06:17;214.35;;;45.78;;
64714;SDS011;51144;53.002;6.506;2023-03-02T05:08:43;217.38;;;48.70;;
64714;SDS011;51144;53.002;6.506;2023-03-02T05:11:09;268.88;;;49.13;;
64714;SDS011;51144;53.002;6.506;2023-03-02T05:13:57;213.77;;;45.75;;
64714;SDS011;51144;53.002;6.506;2023-03-02T05:16:26;322.05;;;51.53;;
64714;SDS011;51144;53.002;6.506;2023-03-02T05:18:53;333.58;;;53.60;;
64714;SDS011;51144;53.002;6.506;2023-03-02T05:21:19;412.52;;;52.65;;
64714;SDS011;51144;53.002;6.506;2023-03-02T05:23:45;324.40;;;51.72;;
64714;SDS011;51144;53.002;6.506;2023-03-02T05:26:12;454.95;;;59.88;;
64714;SDS011;51144;53.002;6.506;2023-03-02T05:28:38;389.63;;;54.90;;
64714;SDS011;51144;53.002;6.506;2023-03-02T05:31:05;395.48;;;55.28;;
64714;SDS011;51144;53.002;6.506;2023-03-02T05:33:31;390.52;;;55.53;;
64714;SDS011;51144;53.002;6.506;2023-03-02T05:35:57;421.67;;;57.67;;
64714;SDS011;51144;53.002;6.506;2023-03-02T05:38:24;430.80;;;58.28;;
64714;SDS011;51144;53.002;6.506;2023-03-02T05:40:51;320.40;;;54.53;;
64714;SDS011;51144;53.002;6.506;2023-03-02T05:43:18;267.23;;;46.83;;
64714;SDS011;51144;53.002;6.506;2023-03-02T05:45:45;290.02;;;51.65;;
64714;SDS011;51144;53.002;6.506;2023-03-02T05:48:11;310.38;;;49.85;;
64714;SDS011;51144;53.002;6.506;2023-03-02T05:50:37;304.52;;;50.67;;
64714;SDS011;51144;53.002;6.506;2023-03-02T05:53:03;185.90;;;43.25;;
64714;SDS011;51144;53.002;6.506;2023-03-02T05:55:29;221.90;;;42.75;;
64714;SDS011;51144;53.002;6.506;2023-03-02T05:57:55;296.45;;;47.78;;
64714;SDS011;51144;53.002;6.506;2023-03-02T06:00:21;285.30;;;46.50;;
64714;SDS011;51144;53.002;6.506;2023-03-02T06:02:47;324.73;;;52.55;;
64714;SDS011;51144;53.002;6.506;2023-03-02T06:05:14;260.48;;;43.88;;
64714;SDS011;51144;53.002;6.506;2023-03-02T06:07:41;300.08;;;44.45;;
64714;SDS011;51144;53.002;6.506;2023-03-02T06:10:08;302.50;;;45.10;;
64714;SDS011;51144;53.002;6.506;2023-03-02T06:12:35;305.13;;;51.10;;
64714;SDS011;51144;53.002;6.506;2023-03-02T06:15:02;371.45;;;53.00;;
64714;SDS011;51144;53.002;6.506;2023-03-02T06:17:29;333.27;;;48.60;;
64714;SDS011;51144;53.002;6.506;2023-03-02T06:19:54;293.42;;;48.65;;
64714;SDS011;51144;53.002;6.506;2023-03-02T06:22:20;336.65;;;47.70;;
64714;SDS011;51144;53.002;6.506;2023-03-02T06:24:46;247.13;;;45.17;;
64714;SDS011;51144;53.002;6.506;2023-03-02T06:27:12;296.25;;;46.80;;
64714;SDS011;51144;53.002;6.506;2023-03-02T06:29:38;250.52;;;45.10;;
64714;SDS011;51144;53.002;6.506;2023-03-02T06:32:04;249.02;;;43.65;;
64714;SDS011;51144;53.002;6.506;2023-03-02T06:34:29;214.10;;;40.30;;
64714;SDS011;51144;53.002;6.506;2023-03-02T06:36:55;280.98;;;46.92;;
64714;SDS011;51144;53.002;6.506;2023-03-02T06:39:21;314.95;;;48.10;;
64714;SDS011;51144;53.002;6.506;2023-03-02T06:41:47;229.82;;;43.70;;
64714;SDS011;51144;53.002;6.506;2023-03-02T06:44:14;355.10;;;49.97;;
64714;SDS011;51144;53.002;6.506;2023-03-02T06:46:40;418.88;;;56.00;;
64714;SDS011;51144;53.002;6.506;2023-03-02T06:49:07;312.85;;;47.00;;
64714;SDS011;51144;53.002;6.506;2023-03-02T06:51:33;325.92;;;49.90;;
64714;SDS011;51144;53.002;6.506;2023-03-02T06:53:59;293.02;;;48.00;;
64714;SDS011;51144;53.002;6.506;2023-03-02T06:56:25;282.98;;;49.90;;
64714;SDS011;51144;53.002;6.506;2023-03-02T06:58:50;282.05;;;48.38;;
64714;SDS011;51144;53.002;6.506;2023-03-02T07:01:16;326.55;;;50.60;;
64714;SDS011;51144;53.002;6.506;2023-03-02T07:03:42;289.50;;;49.53;;
64714;SDS011;51144;53.002;6.506;2023-03-02T07:06:09;275.67;;;50.40;;
64714;SDS011;51144;53.002;6.506;2023-03-02T07:08:38;258.33;;;46.75;;
64714;SDS011;51144;53.002;6.506;2023-03-02T07:11:08;282.00;;;48.60;;
64714;SDS011;51144;53.002;6.506;2023-03-02T07:13:35;182.02;;;41.17;;
64714;SDS011;51144;53.002;6.506;2023-03-02T07:16:05;241.13;;;46.63;;
64714;SDS011;51144;53.002;6.506;2023-03-02T07:18:32;252.82;;;46.15;;
64714;SDS011;51144;53.002;6.506;2023-03-02T07:20:58;249.73;;;44.40;;
64714;SDS011;51144;53.002;6.506;2023-03-02T07:23:23;207.50;;;39.78;;
64714;SDS011;51144;53.002;6.506;2023-03-02T07:25:49;141.95;;;38.75;;
64714;SDS011;51144;53.002;6.506;2023-03-02T07:28:14;164.05;;;41.65;;
64714;SDS011;51144;53.002;6.506;2023-03-02T07:30:40;159.52;;;40.55;;
64714;SDS011;51144;53.002;6.506;2023-03-02T07:33:06;138.18;;;37.58;;
64714;SDS011;51144;53.002;6.506;2023-03-02T07:35:31;152.63;;;38.45;;
64714;SDS011;51144;53.002;6.506;2023-03-02T07:37:57;222.80;;;44.45;;
64714;SDS011;51144;53.002;6.506;2023-03-02T07:40:22;201.95;;;44.78;;
64714;SDS011;51144;53.002;6.506;2023-03-02T07:42:48;202.52;;;43.90;;
64714;SDS011;51144;53.002;6.506;2023-03-02T07:45:14;191.60;;;41.08;;
64714;SDS011;51144;53.002;6.506;2023-03-02T07:47:41;199.07;;;45.10;;
64714;SDS011;51144;53.002;6.506;2023-03-02T07:50:07;178.85;;;44.13;;
64714;SDS011;51144;53.002;6.506;2023-03-02T07:52:33;150.27;;;42.83;;
64714;SDS011;51144;53.002;6.506;2023-03-02T07:54:58;211.50;;;47.78;;
64714;SDS011;51144;53.002;6.506;2023-03-02T07:57:24;190.13;;;43.80;;
64714;SDS011;51144;53.002;6.506;2023-03-02T07:59:50;141.98;;;40.03;;
64714;SDS011;51144;53.002;6.506;2023-03-02T08:02:16;113.47;;;36.60;;
64714;SDS011;51144;53.002;6.506;2023-03-02T08:04:44;146.32;;;40.22;;
64714;SDS011;51144;53.002;6.506;2023-03-02T08:07:10;132.45;;;40.00;;
64714;SDS011;51144;53.002;6.506;2023-03-02T08:09:39;156.48;;;41.42;;
64714;SDS011;51144;53.002;6.506;2023-03-02T08:12:04;162.90;;;40.53;;
64714;SDS011;51144;53.002;6.506;2023-03-02T08:14:30;169.40;;;43.97;;
64714;SDS011;51144;53.002;6.506;2023-03-02T08:16:56;158.73;;;43.08;;
64714;SDS011;51144;53.002;6.506;2023-03-02T08:19:22;177.43;;;40.35;;
64714;SDS011;51144;53.002;6.506;2023-03-02T08:21:48;134.85;;;36.35;;
64714;SDS011;51144;53.002;6.506;2023-03-02T08:24:13;140.07;;;42.42;;
64714;SDS011;51144;53.002;6.506;2023-03-02T08:26:39;136.77;;;38.92;;
64714;SDS011;51144;53.002;6.506;2023-03-02T08:29:05;104.25;;;37.47;;
64714;SDS011;51144;53.002;6.506;2023-03-02T08:31:30;94.20;;;37.05;;
64714;SDS011;51144;53.002;6.506;2023-03-02T08:33:56;104.05;;;39.78;;
64714;SDS011;51144;53.002;6.506;2023-03-02T08:36:23;126.30;;;38.78;;
64714;SDS011;51144;53.002;6.506;2023-03-02T08:38:49;127.68;;;39.38;;
64714;SDS011;51144;53.002;6.506;2023-03-02T08:41:17;129.43;;;37.85;;
64714;SDS011;51144;53.002;6.506;2023-03-02T08:43:44;116.93;;;36.33;;
64714;SDS011;51144;53.002;6.506;2023-03-02T08:46:10;154.85;;;43.22;;
64714;SDS011;51144;53.002;6.506;2023-03-02T08:48:37;138.18;;;42.20;;
64714;SDS011;51144;53.002;6.506;2023-03-02T08:51:04;131.98;;;40.13;;
64714;SDS011;51144;53.002;6.506;2023-03-02T08:53:33;133.48;;;39.90;;
64714;SDS011;51144;53.002;6.506;2023-03-02T08:56:01;119.70;;;42.15;;
64714;SDS011;51144;53.002;6.506;2023-03-02T08:58:27;113.78;;;41.80;;
64714;SDS011;51144;53.002;6.506;2023-03-02T09:00:53;103.13;;;38.65;;
64714;SDS011;51144;53.002;6.506;2023-03-02T09:03:19;132.05;;;41.60;;
64714;SDS011;51144;53.002;6.506;2023-03-02T09:05:44;115.43;;;40.63;;
64714;SDS011;51144;53.002;6.506;2023-03-02T09:08:10;98.07;;;38.17;;
64714;SDS011;51144;53.002;6.506;2023-03-02T09:10:36;83.47;;;36.63;;
64714;SDS011;51144;53.002;6.506;2023-03-02T09:13:02;80.85;;;35.55;;
64714;SDS011;51144;53.002;6.506;2023-03-02T09:15:29;76.95;;;33.90;;
64714;SDS011;51144;53.002;6.506;2023-03-02T09:17:55;64.80;;;30.10;;
64714;SDS011;51144;53.002;6.506;2023-03-02T09:20:21;70.50;;;33.88;;
64714;SDS011;51144;53.002;6.506;2023-03-02T09:22:46;75.78;;;34.13;;
64714;SDS011;51144;53.002;6.506;2023-03-02T09:25:14;65.30;;;32.97;;
64714;SDS011;51144;53.002;6.506;2023-03-02T09:27:42;70.95;;;31.58;;
64714;SDS011;51144;53.002;6.506;2023-03-02T09:30:08;69.03;;;31.90;;
64714;SDS011;51144;53.002;6.506;2023-03-02T09:32:34;67.93;;;31.45;;
64714;SDS011;51144;53.002;6.506;2023-03-02T09:35:00;69.18;;;33.03;;
64714;SDS011;51144;53.002;6.506;2023-03-02T09:37:26;66.55;;;33.28;;
64714;SDS011;51144;53.002;6.506;2023-03-02T09:39:53;69.65;;;31.63;;
64714;SDS011;51144;53.002;6.506;2023-03-02T09:45:18;62.50;;;31.30;;
64714;SDS011;51144;53.002;6.506;2023-03-02T09:53:46;67.38;;;32.78;;
64714;SDS011;51144;53.002;6.506;2023-03-02T09:56:27;59.30;;;31.52;;
64714;SDS011;51144;53.002;6.506;2023-03-02T09:59:07;61.90;;;32.17;;
64714;SDS011;51144;53.002;6.506;2023-03-02T10:01:55;57.53;;;31.38;;
64714;SDS011;51144;53.002;6.506;2023-03-02T10:04:38;54.08;;;30.67;;
64714;SDS011;51144;53.002;6.506;2023-03-02T10:07:12;52.55;;;30.85;;
64714;SDS011;51144;53.002;6.506;2023-03-02T10:09:40;55.13;;;29.45;;
64714;SDS011;51144;53.002;6.506;2023-03-02T10:20:13;49.03;;;28.90;;
64714;SDS011;51144;53.002;6.506;2023-03-02T10:22:45;39.42;;;25.40;;
64714;SDS011;51144;53.002;6.506;2023-03-02T10:25:21;36.63;;;25.40;;
64714;SDS011;51144;53.002;6.506;2023-03-02T10:28:22;33.65;;;23.00;;
64714;SDS011;51144;53.002;6.506;2023-03-02T10:30:57;36.60;;;24.88;;
64714;SDS011;51144;53.002;6.506;2023-03-02T10:33:31;37.45;;;25.27;;
64714;SDS011;51144;53.002;6.506;2023-03-02T10:36:00;40.67;;;26.33;;
64714;SDS011;51144;53.002;6.506;2023-03-02T10:38:35;38.53;;;26.70;;
64714;SDS011;51144;53.002;6.506;2023-03-02T10:41:02;36.70;;;24.02;;
64714;SDS011;51144;53.002;6.506;2023-03-02T10:43:35;31.50;;;22.15;;
64714;SDS011;51144;53.002;6.506;2023-03-02T10:46:09;34.28;;;23.13;;
64714;SDS011;51144;53.002;6.506;2023-03-02T10:48:51;32.80;;;23.55;;
64714;SDS011;51144;53.002;6.506;2023-03-02T10:51:21;37.95;;;23.23;;
64714;SDS011;51144;53.002;6.506;2023-03-02T10:53:48;34.05;;;23.92;;
64714;SDS011;51144;53.002;6.506;2023-03-02T10:56:17;36.13;;;24.63;;
64714;SDS011;51144;53.002;6.506;2023-03-02T10:58:45;34.50;;;24.45;;
64714;SDS011;51144;53.002;6.506;2023-03-02T11:01:15;36.20;;;25.08;;
64714;SDS011;51144;53.002;6.506;2023-03-02T11:03:53;39.83;;;26.35;;
64714;SDS011;51144;53.002;6.506;2023-03-02T11:06:20;37.80;;;25.95;;
64714;SDS011;51144;53.002;6.506;2023-03-02T11:08:56;37.75;;;26.33;;
64714;SDS011;51144;53.002;6.506;2023-03-02T11:11:23;35.88;;;23.55;;
64714;SDS011;51144;53.002;6.506;2023-03-02T11:13:49;34.10;;;24.00;;
64714;SDS011;51144;53.002;6.506;2023-03-02T11:18:43;30.90;;;21.52;;
64714;SDS011;51144;53.002;6.506;2023-03-02T11:27:10;31.88;;;23.55;;
64714;SDS011;51144;53.002;6.506;2023-03-02T11:29:48;31.35;;;22.13;;
64714;SDS011;51144;53.002;6.506;2023-03-02T11:35:05;29.15;;;22.48;;
64714;SDS011;51144;53.002;6.506;2023-03-02T11:37:49;27.52;;;21.25;;
64714;SDS011;51144;53.002;6.506;2023-03-02T11:42:51;29.33;;;21.02;;
64714;SDS011;51144;53.002;6.506;2023-03-02T11:45:21;29.83;;;22.75;;
64714;SDS011;51144;53.002;6.506;2023-03-02T11:48:07;30.45;;;22.25;;
64714;SDS011;51144;53.002;6.506;2023-03-02T11:50:57;28.73;;;20.70;;
64714;SDS011;51144;53.002;6.506;2023-03-02T11:53:28;25.10;;;18.90;;
64714;SDS011;51144;53.002;6.506;2023-03-02T11:55:57;29.80;;;19.85;;
64714;SDS011;51144;53.002;6.506;2023-03-02T11:58:24;27.70;;;19.63;;
64714;SDS011;51144;53.002;6.506;2023-03-02T12:00:52;20.83;;;17.05;;
64714;SDS011;51144;53.002;6.506;2023-03-02T12:03:34;24.88;;;17.30;;
64714;SDS011;51144;53.002;6.506;2023-03-02T12:08:40;20.15;;;15.70;;
64714;SDS011;51144;53.002;6.506;2023-03-02T12:14:03;19.90;;;15.25;;
64714;SDS011;51144;53.002;6.506;2023-03-02T12:17:06;18.35;;;15.35;;
64714;SDS011;51144;53.002;6.506;2023-03-02T12:19:54;20.58;;;15.07;;
64714;SDS011;51144;53.002;6.506;2023-03-02T12:22:31;22.25;;;15.43;;
64714;SDS011;51144;53.002;6.506;2023-03-02T12:25:01;17.20;;;14.68;;
64714;SDS011;51144;53.002;6.506;2023-03-02T12:27:42;16.80;;;14.07;;
64714;SDS011;51144;53.002;6.506;2023-03-02T12:30:19;16.80;;;13.45;;
64714;SDS011;51144;53.002;6.506;2023-03-02T12:33:00;14.77;;;12.48;;
64714;SDS011;51144;53.002;6.506;2023-03-02T12:35:35;16.13;;;11.95;;
64714;SDS011;51144;53.002;6.506;2023-03-02T12:38:03;13.65;;;10.88;;
64714;SDS011;51144;53.002;6.506;2023-03-02T12:40:46;14.35;;;11.20;;
64714;SDS011;51144;53.002;6.506;2023-03-02T12:46:26;17.30;;;12.98;;
64714;SDS011;51144;53.002;6.506;2023-03-02T12:54:21;16.77;;;12.95;;
64714;SDS011;51144;53.002;6.506;2023-03-02T12:56:48;18.38;;;12.43;;
64714;SDS011;51144;53.002;6.506;2023-03-02T12:59:26;16.48;;;12.45;;
64714;SDS011;51144;53.002;6.506;2023-03-02T13:04:42;32.22;;;16.02;;
64714;SDS011;51144;53.002;6.506;2023-03-02T13:07:18;15.90;;;13.23;;
64714;SDS011;51144;53.002;6.506;2023-03-02T13:09:50;17.92;;;13.00;;
64714;SDS011;51144;53.002;6.506;2023-03-02T13:12:18;18.02;;;14.20;;
64714;SDS011;51144;53.002;6.506;2023-03-02T13:14:44;18.67;;;14.15;;
64714;SDS011;51144;53.002;6.506;2023-03-02T13:17:21;20.02;;;13.68;;
64714;SDS011;51144;53.002;6.506;2023-03-02T13:19:48;20.63;;;14.05;;
64714;SDS011;51144;53.002;6.506;2023-03-02T13:22:14;26.48;;;16.05;;
64714;SDS011;51144;53.002;6.506;2023-03-02T13:27:27;26.70;;;17.40;;
64714;SDS011;51144;53.002;6.506;2023-03-02T13:29:54;26.73;;;17.42;;
64714;SDS011;51144;53.002;6.506;2023-03-02T13:32:24;28.52;;;19.23;;
64714;SDS011;51144;53.002;6.506;2023-03-02T13:34:58;33.00;;;18.42;;
64714;SDS011;51144;53.002;6.506;2023-03-02T13:37:36;29.40;;;18.60;;
64714;SDS011;51144;53.002;6.506;2023-03-02T13:40:29;32.17;;;20.83;;
64714;SDS011;51144;53.002;6.506;2023-03-02T13:42:58;32.80;;;20.15;;
64714;SDS011;51144;53.002;6.506;2023-03-02T13:45:30;29.63;;;20.08;;
64714;SDS011;51144;53.002;6.506;2023-03-02T13:47:58;35.17;;;22.10;;
64714;SDS011;51144;53.002;6.506;2023-03-02T13:50:28;35.22;;;22.05;;
64714;SDS011;51144;53.002;6.506;2023-03-02T13:52:59;30.75;;;20.02;;
64714;SDS011;51144;53.002;6.506;2023-03-02T13:55:29;30.27;;;19.95;;
64714;SDS011;51144;53.002;6.506;2023-03-02T13:57:55;26.02;;;19.00;;
64714;SDS011;51144;53.002;6.506;2023-03-02T14:00:24;28.00;;;19.58;;
64714;SDS011;51144;53.002;6.506;2023-03-02T14:02:54;26.70;;;19.77;;
64714;SDS011;51144;53.002;6.506;2023-03-02T14:05:21;28.73;;;20.88;;
64714;SDS011;51144;53.002;6.506;2023-03-02T14:07:51;24.38;;;18.73;;
64714;SDS011;51144;53.002;6.506;2023-03-02T14:10:17;26.73;;;19.52;;
64714;SDS011;51144;53.002;6.506;2023-03-02T14:12:50;25.35;;;19.38;;
64714;SDS011;51144;53.002;6.506;2023-03-02T14:15:21;24.33;;;18.90;;
64714;SDS011;51144;53.002;6.506;2023-03-02T14:17:47;21.60;;;17.45;;
64714;SDS011;51144;53.002;6.506;2023-03-02T14:20:14;18.77;;;13.77;;
64714;SDS011;51144;53.002;6.506;2023-03-02T14:22:43;16.92;;;13.35;;
64714;SDS011;51144;53.002;6.506;2023-03-02T14:25:09;15.18;;;11.52;;
64714;SDS011;51144;53.002;6.506;2023-03-02T14:27:35;15.52;;;11.20;;
64714;SDS011;51144;53.002;6.506;2023-03-02T14:30:02;14.82;;;10.63;;
64714;SDS011;51144;53.002;6.506;2023-03-02T14:32:46;11.38;;;9.75;;
64714;SDS011;51144;53.002;6.506;2023-03-02T14:35:12;14.60;;;11.75;;
64714;SDS011;51144;53.002;6.506;2023-03-02T14:37:41;12.57;;;10.98;;
64714;SDS011;51144;53.002;6.506;2023-03-02T14:40:22;12.80;;;9.68;;
64714;SDS011;51144;53.002;6.506;2023-03-02T14:42:50;11.90;;;10.43;;
64714;SDS011;51144;53.002;6.506;2023-03-02T14:45:18;11.07;;;9.77;;
64714;SDS011;51144;53.002;6.506;2023-03-02T14:47:44;14.77;;;10.07;;
64714;SDS011;51144;53.002;6.506;2023-03-02T14:50:10;9.63;;;8.63;;
64714;SDS011;51144;53.002;6.506;2023-03-02T14:52:38;12.82;;;9.75;;
64714;SDS011;51144;53.002;6.506;2023-03-02T14:55:11;12.02;;;9.15;;
64714;SDS011;51144;53.002;6.506;2023-03-02T14:57:38;9.13;;;8.23;;
64714;SDS011;51144;53.002;6.506;2023-03-02T15:00:05;10.80;;;9.25;;
64714;SDS011;51144;53.002;6.506;2023-03-02T15:02:31;10.88;;;9.25;;
64714;SDS011;51144;53.002;6.506;2023-03-02T15:04:57;9.93;;;8.93;;
64714;SDS011;51144;53.002;6.506;2023-03-02T15:07:23;9.70;;;8.70;;
64714;SDS011;51144;53.002;6.506;2023-03-02T15:09:50;10.35;;;9.15;;
64714;SDS011;51144;53.002;6.506;2023-03-02T15:12:16;10.15;;;9.10;;
64714;SDS011;51144;53.002;6.506;2023-03-02T15:14:41;11.13;;;9.90;;
64714;SDS011;51144;53.002;6.506;2023-03-02T15:17:07;12.75;;;10.40;;
64714;SDS011;51144;53.002;6.506;2023-03-02T15:19:34;13.07;;;10.60;;
64714;SDS011;51144;53.002;6.506;2023-03-02T15:21:59;10.90;;;9.35;;
64714;SDS011;51144;53.002;6.506;2023-03-02T15:24:25;11.75;;;10.43;;
64714;SDS011;51144;53.002;6.506;2023-03-02T15:26:51;12.50;;;10.98;;
64714;SDS011;51144;53.002;6.506;2023-03-02T15:29:17;12.85;;;10.68;;
64714;SDS011;51144;53.002;6.506;2023-03-02T15:31:44;11.05;;;9.95;;